Hav Nordic — OZ2119 — position and weather

sailwx.info

Track history (hours):
 
Tides and Currents Weather Stations Pressure Air Temp Water Temp Dewpoint Dewpoint Depression Visibility Wind Speed Wind Dir Waves Ship Positions

Hav Nordic

Last reported at 2017-Oct-16 17:33 UTC. Time now 2017-Oct-16 22:26 UTC.
Position N 62°15' W 006°35'.

Length 75 m; draft 5.7 m.

Type: Cargo ship. MMSI: 231812000.

Date/timePositionNaut miles runAvg speedWind from/ knotsBaromVisibWave heightAir tempDewpointWater temp
2017-Oct-16 17:33N 62°15' W 006°35'1 3.0
2017-Oct-16 17:19N 62°15' W 006°36'2 7.8
2017-Oct-16 17:00N 62°12' W 006°37'510.8
2017-Oct-16 16:30N 62°08' W 006°33'5 9.5
2017-Oct-16 16:00N 62°03' W 006°32'5 9.7
2017-Oct-16 15:30N 61°58' W 006°33'5 9.7
2017-Oct-16 15:00N 61°53' W 006°34'9 9.2
2017-Oct-16 14:00N 61°44' W 006°38'4 8.6
2017-Oct-16 13:30N 61°40' W 006°40'5 9.2
2017-Oct-16 12:57N 61°35' W 006°42'3 0.4
2017-Oct-16 05:50N 61°32' W 006°44'2 6.8
2017-Oct-16 05:30N 61°31' W 006°40'3 5.5
2017-Oct-16 05:00N 61°31' W 006°34'3 5.4
2017-Oct-16 04:30N 61°30' W 006°29'3 5.2
2017-Oct-16 03:51N 61°30' W 006°22'3 7.1
2017-Oct-16 03:28N 61°29' W 006°16'4 8.6
2017-Oct-16 02:59N 61°28' W 006°08'4 8.5
2017-Oct-16 02:30N 61°28' W 005°59'5 8.6
2017-Oct-16 01:59N 61°27' W 005°50'332 7.3
2017-Oct-14 04:38N 59°09' E 004°19'2 8.0
2017-Oct-14 04:23N 59°09' E 004°23'3 8.0
2017-Oct-14 03:59N 59°08' E 004°29'4 8.0
2017-Oct-14 03:29N 59°08' E 004°37'4 7.8
2017-Oct-14 03:00N 59°07' E 004°44'4 8.4
2017-Oct-14 02:30N 59°07' E 004°52'4 8.9
2017-Oct-14 02:00N 59°07' E 005°01'4 8.6
2017-Oct-14 01:30N 59°07' E 005°09'4 8.1
2017-Oct-14 01:00N 59°07' E 005°17'4 8.0
2017-Oct-14 00:30N 59°08' E 005°25'4 8.4
2017-Oct-14 00:00N 59°09' E 005°33'4 8.6
2017-Oct-13 23:30N 59°08' E 005°41'5 9.2
2017-Oct-13 23:00N 59°07' E 005°50'3 6.2
2017-Oct-13 22:30N 59°05' E 005°54'0 0.0
2017-Oct-13 21:58N 59°05' E 005°54'0 0.0
2017-Oct-13 21:30N 59°05' E 005°54'1 2.6
2017-Oct-13 21:01N 59°06' E 005°52'4 8.6
2017-Oct-13 20:30N 59°10' E 005°54'4 7.9
2017-Oct-13 20:00N 59°13' E 005°59'5 9.1
2017-Oct-13 19:30N 59°15' E 006°08'5 9.6
2017-Oct-13 19:00N 59°17' E 006°16'5 9.5
2017-Oct-13 18:29N 59°19' E 006°25'1 2.2
2017-Oct-13 18:00N 59°19' E 006°27'0 0.0
2017-Oct-13 17:28N 59°19' E 006°27'0 0.0
2017-Oct-13 16:58N 59°19' E 006°27'0 0.0
2017-Oct-13 16:25N 59°19' E 006°27'0 0.0
2017-Oct-13 15:58N 59°19' E 006°27'0 0.0
2017-Oct-13 15:28N 59°19' E 006°27'0 0.0
2017-Oct-13 15:01N 59°19' E 006°27'0 0.0
2017-Oct-13 14:28N 59°19' E 006°27'0 0.0
2017-Oct-13 13:54N 59°19' E 006°27'0 0.0
2017-Oct-13 13:27N 59°19' E 006°27'0 0.0
2017-Oct-13 13:00N 59°19' E 006°27'0 0.0
2017-Oct-13 12:29N 59°19' E 006°27'4 7.9
2017-Oct-13 11:59N 59°18' E 006°20'510.2
2017-Oct-13 11:30N 59°16' E 006°11'510.1
2017-Oct-13 11:00N 59°14' E 006°02'510.3
2017-Oct-13 10:30N 59°13' E 005°52'510.6
2017-Oct-13 10:00N 59°12' E 005°42'510.5
2017-Oct-13 09:30N 59°10' E 005°32'5 9.6
2017-Oct-13 09:00N 59°09' E 005°23'4 8.5
2017-Oct-13 08:30N 59°13' E 005°21'5 9.1
2017-Oct-13 08:00N 59°17' E 005°20'3 6.1
2017-Oct-13 07:28N 59°20' E 005°19'0 0.0
2017-Oct-13 06:58N 59°20' E 005°19'0 0.0
2017-Oct-13 06:28N 59°20' E 005°19'0 0.0
2017-Oct-13 05:58N 59°20' E 005°19'0 0.0
2017-Oct-13 05:28N 59°20' E 005°19'0 0.0
2017-Oct-13 04:58N 59°20' E 005°19'0 0.0
2017-Oct-13 04:28N 59°20' E 005°19'0 0.0
2017-Oct-13 03:58N 59°20' E 005°19'0 0.0
2017-Oct-13 03:28N 59°20' E 005°19'0 0.0
2017-Oct-13 02:58N 59°20' E 005°19'0 0.0
2017-Oct-13 02:28N 59°20' E 005°19'0 0.0
2017-Oct-13 01:58N 59°20' E 005°19'0 0.0
2017-Oct-13 01:28N 59°20' E 005°19'0 0.0
2017-Oct-13 00:58N 59°20' E 005°19'0 0.0
2017-Oct-13 00:28N 59°20' E 005°19'0 0.0
2017-Oct-12 23:58N 59°20' E 005°19'0 0.0
2017-Oct-12 23:28N 59°20' E 005°19'0 0.0
2017-Oct-12 22:58N 59°20' E 005°19'0 0.0
2017-Oct-12 22:28N 59°20' E 005°19'0 0.0
2017-Oct-12 21:58N 59°20' E 005°19'0 0.0
2017-Oct-12 21:28N 59°20' E 005°19'0 0.0
2017-Oct-12 20:58N 59°20' E 005°19'0 0.0
2017-Oct-12 20:28N 59°20' E 005°19'0 0.0
2017-Oct-12 19:58N 59°20' E 005°19'0 0.0
2017-Oct-12 19:28N 59°20' E 005°19'0 0.0
2017-Oct-12 18:58N 59°20' E 005°19'0 0.0
2017-Oct-12 18:28N 59°20' E 005°19'0 0.0
2017-Oct-12 17:58N 59°20' E 005°19'0 0.0
2017-Oct-12 17:28N 59°20' E 005°19'0 0.0
2017-Oct-12 16:58N 59°20' E 005°19'0 0.8
2017-Oct-12 16:22N 59°20' E 005°18'0 0.0
2017-Oct-12 15:58N 59°20' E 005°18'0 0.0
2017-Oct-12 15:28N 59°20' E 005°18'0 0.0
2017-Oct-12 14:58N 59°20' E 005°18'0 0.0
2017-Oct-12 14:28N 59°20' E 005°18'0 0.0
2017-Oct-12 13:58N 59°20' E 005°18'0 0.0
2017-Oct-12 13:28N 59°20' E 005°18'0 0.0
2017-Oct-12 12:58N 59°20' E 005°18'0 0.0
2017-Oct-12 12:28N 59°20' E 005°18'0 0.0
2017-Oct-12 11:55N 59°20' E 005°18'0 0.0
2017-Oct-12 11:28N 59°20' E 005°18'0 0.0
2017-Oct-12 10:58N 59°20' E 005°18'0 0.0
2017-Oct-12 10:28N 59°20' E 005°18'0 0.0
2017-Oct-12 09:58N 59°20' E 005°18'0 0.0
2017-Oct-12 09:28N 59°20' E 005°18'0 0.0
2017-Oct-12 08:58N 59°20' E 005°18'0 0.0
2017-Oct-12 08:28N 59°20' E 005°18'0 0.0
2017-Oct-12 07:58N 59°20' E 005°18'0 0.0
2017-Oct-12 07:28N 59°20' E 005°18'0 0.0
2017-Oct-12 06:58N 59°20' E 005°18'0 0.0
2017-Oct-12 06:28N 59°20' E 005°18'0 0.0
2017-Oct-12 05:58N 59°20' E 005°18'0 0.0
2017-Oct-12 05:28N 59°20' E 005°18'0 0.0
2017-Oct-12 04:58N 59°20' E 005°18'0 0.0
2017-Oct-12 04:28N 59°20' E 005°18'0 0.0
2017-Oct-12 03:58N 59°20' E 005°18'0 0.0
2017-Oct-12 03:28N 59°20' E 005°18'0 0.0
2017-Oct-12 02:58N 59°20' E 005°18'0 0.0
2017-Oct-12 02:28N 59°20' E 005°18'0 0.0
2017-Oct-12 01:58N 59°20' E 005°18'0 0.0
2017-Oct-12 01:28N 59°20' E 005°18'0 0.0
2017-Oct-12 00:58N 59°20' E 005°18'0 0.0
2017-Oct-12 00:28N 59°20' E 005°18'0 0.0
2017-Oct-11 23:58N 59°20' E 005°18'0 0.0
2017-Oct-11 23:28N 59°20' E 005°18'0 0.0
2017-Oct-11 22:58N 59°20' E 005°18'0 0.0
2017-Oct-11 22:28N 59°20' E 005°18'0 0.0
2017-Oct-11 21:58N 59°20' E 005°18'0 0.0
2017-Oct-11 21:28N 59°20' E 005°18'0 0.2
2017-Oct-11 21:00N 59°20' E 005°18'4 8.0
2017-Oct-11 20:30N 59°16' E 005°20'5 9.4
2017-Oct-11 20:00N 59°12' E 005°21'5 9.3
2017-Oct-11 19:30N 59°07' E 005°21'5 9.6
2017-Oct-11 19:00N 59°02' E 005°20'5 9.9
2017-Oct-11 18:30N 58°57' E 005°20'510.9
2017-Oct-11 18:00N 58°52' E 005°18'510.5
2017-Oct-11 17:30N 58°47' E 005°18'510.2
2017-Oct-11 17:00N 58°42' E 005°18'309 9.1
2017-Oct-10 07:15N 53°33' E 004°48'410.6
2017-Oct-10 06:55N 53°30' E 004°46'410.6
2017-Oct-10 06:30N 53°26' E 004°42'2010.3
2017-Oct-10 04:36N 53°08' E 004°28'1 9.8
2017-Oct-10 04:30N 53°07' E 004°28'5 9.6
2017-Oct-10 04:00N 53°03' E 004°24'5 9.1
2017-Oct-10 03:30N 52°59' E 004°21'5 9.0
2017-Oct-10 03:00N 52°55' E 004°18'4 8.8
2017-Oct-10 02:30N 52°51' E 004°14'4 8.7
2017-Oct-10 02:00N 52°48' E 004°10'4 8.6
2017-Oct-10 01:30N 52°44' E 004°05'4 8.6
2017-Oct-10 01:00N 52°41' E 004°00'4 8.5
2017-Oct-10 00:30N 52°38' E 003°55'4 8.3
2017-Oct-10 00:00N 52°35' E 003°51'4 8.2
2017-Oct-09 23:30N 52°32' E 003°46'4 8.1
2017-Oct-09 23:00N 52°29' E 003°41'4 8.1
2017-Oct-09 22:30N 52°26' E 003°37'4 8.2
2017-Oct-09 21:59N 52°23' E 003°33'38 9.1
2017-Oct-09 17:50N 51°48' E 003°08'610.7
2017-Oct-09 17:15N 51°42' E 003°10'310.8
2017-Oct-09 17:00N 51°40' E 003°10'510.9
2017-Oct-09 16:30N 51°34' E 003°11'611.3
2017-Oct-09 16:00N 51°30' E 003°05'510.4
2017-Oct-09 15:30N 51°26' E 003°01'4 7.8
2017-Oct-09 15:00N 51°24' E 003°06'4 7.6
2017-Oct-09 14:31N 51°22' E 003°11'2 4.6
2017-Oct-09 14:00N 51°20' E 003°13'0 0.0
2017-Oct-09 13:30N 51°20' E 003°13'1 2.5
2017-Oct-09 13:00N 51°19' E 003°13'2 4.6
2017-Oct-09 12:30N 51°17' E 003°13'1 1.4
2017-Oct-09 12:00N 51°16' E 003°13'1 1.5
2017-Oct-09 11:30N 51°15' E 003°13'1 2.1
2017-Oct-09 10:58N 51°14' E 003°13'0 0.0
2017-Oct-09 10:28N 51°14' E 003°13'0 0.0
2017-Oct-09 09:55N 51°14' E 003°13'0 0.0
2017-Oct-09 09:25N 51°14' E 003°13'0 0.0
2017-Oct-09 08:58N 51°14' E 003°13'0 0.0
2017-Oct-09 08:28N 51°14' E 003°13'0 0.0
2017-Oct-09 07:58N 51°14' E 003°13'0 0.0
2017-Oct-09 07:25N 51°14' E 003°13'0 0.0
2017-Oct-09 06:58N 51°14' E 003°13'0 0.0
2017-Oct-09 06:28N 51°14' E 003°13'0 0.0
2017-Oct-09 05:58N 51°14' E 003°13'0 0.0
2017-Oct-09 05:28N 51°14' E 003°13'0 0.0
2017-Oct-09 04:58N 51°14' E 003°13'0 0.0
2017-Oct-09 04:28N 51°14' E 003°13'0 0.0
2017-Oct-09 03:55N 51°14' E 003°13'0 0.0
2017-Oct-09 03:28N 51°14' E 003°13'0 0.0
2017-Oct-09 02:55N 51°14' E 003°13'0 0.0
2017-Oct-09 02:28N 51°14' E 003°13'0 0.0
2017-Oct-09 01:55N 51°14' E 003°13'0 0.0
2017-Oct-09 01:28N 51°14' E 003°13'0 0.0
2017-Oct-09 00:58N 51°14' E 003°13'0 0.0
2017-Oct-09 00:28N 51°14' E 003°13'0 0.0
2017-Oct-08 23:58N 51°14' E 003°13'0 0.0
2017-Oct-08 23:28N 51°14' E 003°13'0 0.0
2017-Oct-08 22:55N 51°14' E 003°13'0 0.0
2017-Oct-08 22:28N 51°14' E 003°13'0 0.0
2017-Oct-08 21:58N 51°14' E 003°13'0 0.0
2017-Oct-08 21:28N 51°14' E 003°13'0 0.0
2017-Oct-08 20:58N 51°14' E 003°13'0 0.0
2017-Oct-08 20:28N 51°14' E 003°13'0 0.0
2017-Oct-08 19:58N 51°14' E 003°13'0 0.0
2017-Oct-08 19:28N 51°14' E 003°13'0 0.0
2017-Oct-08 18:58N 51°14' E 003°13'0 0.0
2017-Oct-08 18:28N 51°14' E 003°13'0 0.0
2017-Oct-08 17:58N 51°14' E 003°13'0 0.0
2017-Oct-08 17:28N 51°14' E 003°13'0 0.0
2017-Oct-08 16:58N 51°14' E 003°13'0 0.0
2017-Oct-08 16:28N 51°14' E 003°13'0 0.0
2017-Oct-08 15:58N 51°14' E 003°13'0 0.0
2017-Oct-08 15:28N 51°14' E 003°13'0 0.0
2017-Oct-08 14:58N 51°14' E 003°13'0 0.0
2017-Oct-08 14:28N 51°14' E 003°13'0 0.0
2017-Oct-08 13:55N 51°14' E 003°13'0 0.0
2017-Oct-08 13:25N 51°14' E 003°13'0 0.0
2017-Oct-08 12:58N 51°14' E 003°13'0 0.0
2017-Oct-08 12:28N 51°14' E 003°13'0 0.0
2017-Oct-08 11:58N 51°14' E 003°13'0 0.0
2017-Oct-08 11:25N 51°14' E 003°13'0 0.0
2017-Oct-08 10:55N 51°14' E 003°13'0 0.0
2017-Oct-08 10:28N 51°14' E 003°13'0 0.0
2017-Oct-08 09:55N 51°14' E 003°13'0 0.0
2017-Oct-08 09:28N 51°14' E 003°13'0 0.1
2017-Oct-08 09:00N 51°14' E 003°13'3 5.1
2017-Oct-08 08:30N 51°17' E 003°13'1 1.0
2017-Oct-08 08:00N 51°17' E 003°13'2 4.4
2017-Oct-08 07:30N 51°19' E 003°13'1 1.7
2017-Oct-08 07:00N 51°20' E 003°13'0 0.1
2017-Oct-08 06:30N 51°20' E 003°13'3 5.3
2017-Oct-08 06:00N 51°22' E 003°10'4 8.7
2017-Oct-08 05:30N 51°24' E 003°04'3 6.4
2017-Oct-08 05:00N 51°26' E 002°60'3 5.7
2017-Oct-08 04:30N 51°27' E 002°56'3 5.8
2017-Oct-08 04:00N 51°29' E 002°52'3 6.1
2017-Oct-08 03:30N 51°31' E 002°48'75 9.9
2017-Oct-07 19:51N 52°40' E 001°57'1311.9
2017-Oct-07 18:46N 52°51' E 001°46'311.6
2017-Oct-07 18:30N 52°53' E 001°43'1111.0
2017-Oct-07 17:29N 53°01' E 001°30'510.0
2017-Oct-07 17:00N 53°04' E 001°24'5 9.4
2017-Oct-07 16:30N 53°07' E 001°18'4 8.8
2017-Oct-07 16:00N 53°11' E 001°13'4 8.2
2017-Oct-07 15:30N 53°14' E 001°09'4 8.0
2017-Oct-07 15:00N 53°17' E 001°04'4 7.9
2017-Oct-07 14:30N 53°20' E 000°60'41 8.5
2017-Oct-07 09:43N 53°36' W 000°03'313.1
2017-Oct-07 09:30N 53°37' W 000°07'611.9
2017-Oct-07 09:00N 53°42' W 000°14'3 6.1
2017-Oct-07 08:30N 53°44' W 000°16'0 1.0
2017-Oct-07 08:00N 53°44' W 000°16'0 0.0
2017-Oct-07 07:30N 53°44' W 000°16'0 0.0
2017-Oct-07 07:00N 53°44' W 000°16'0 0.0
2017-Oct-07 06:30N 53°44' W 000°16'0 0.0
2017-Oct-07 06:00N 53°44' W 000°16'0 0.0
2017-Oct-07 05:30N 53°44' W 000°16'0 0.0
2017-Oct-07 05:00N 53°44' W 000°16'0 0.0
2017-Oct-07 04:30N 53°44' W 000°16'0 0.0
2017-Oct-07 04:00N 53°44' W 000°16'0 0.0
2017-Oct-07 03:30N 53°44' W 000°16'0 0.0
2017-Oct-07 03:00N 53°44' W 000°16'0 0.0
2017-Oct-07 02:30N 53°44' W 000°16'0 0.0
2017-Oct-07 02:00N 53°44' W 000°16'0 0.0
2017-Oct-07 01:30N 53°44' W 000°16'0 0.0
2017-Oct-07 01:00N 53°44' W 000°16'0 0.0
2017-Oct-07 00:30N 53°44' W 000°16'0 0.0
2017-Oct-07 00:00N 53°44' W 000°16'0 0.0
2017-Oct-06 23:30N 53°44' W 000°16'0 0.0
2017-Oct-06 23:00N 53°44' W 000°16'0 0.0
2017-Oct-06 22:30N 53°44' W 000°16'0 0.0
2017-Oct-06 22:00N 53°44' W 000°16'0 0.0
2017-Oct-06 21:30N 53°44' W 000°16'0 0.0
2017-Oct-06 21:00N 53°44' W 000°16'0 0.0
2017-Oct-06 20:30N 53°44' W 000°16'0 0.0
2017-Oct-06 20:00N 53°44' W 000°16'0 0.0
2017-Oct-06 19:30N 53°44' W 000°16'0 0.0
2017-Oct-06 19:00N 53°44' W 000°16'0 0.0
2017-Oct-06 18:30N 53°44' W 000°16'0 0.0
2017-Oct-06 18:00N 53°44' W 000°16'  
Track history (hours):
 
Tides and Currents Weather Stations Pressure Air Temp Water Temp Dewpoint Dewpoint Depression Visibility Wind Speed Wind Dir Waves Ship Positions

Hav Nordic

Last reported at 2017-Oct-16 17:33 UTC. Time now 2017-Oct-16 22:26 UTC.
Position N 62°15' W 006°35'.

Length 75 m; draft 5.7 m.

Type: Cargo ship. MMSI: 231812000.

Date/timePositionNaut miles runAvg speedWind from/ knotsBaromVisibWave heightAir tempDewpointWater temp
2017-Oct-16 17:33N 62°15' W 006°35'1 3.0
2017-Oct-16 17:19N 62°15' W 006°36'2 7.8
2017-Oct-16 17:00N 62°12' W 006°37'510.8
2017-Oct-16 16:30N 62°08' W 006°33'5 9.5
2017-Oct-16 16:00N 62°03' W 006°32'5 9.7
2017-Oct-16 15:30N 61°58' W 006°33'5 9.7
2017-Oct-16 15:00N 61°53' W 006°34'9 9.2
2017-Oct-16 14:00N 61°44' W 006°38'4 8.6
2017-Oct-16 13:30N 61°40' W 006°40'5 9.2
2017-Oct-16 12:57N 61°35' W 006°42'3 0.4
2017-Oct-16 05:50N 61°32' W 006°44'2 6.8
2017-Oct-16 05:30N 61°31' W 006°40'3 5.5
2017-Oct-16 05:00N 61°31' W 006°34'3 5.4
2017-Oct-16 04:30N 61°30' W 006°29'3 5.2
2017-Oct-16 03:51N 61°30' W 006°22'3 7.1
2017-Oct-16 03:28N 61°29' W 006°16'4 8.6
2017-Oct-16 02:59N 61°28' W 006°08'4 8.5
2017-Oct-16 02:30N 61°28' W 005°59'5 8.6
2017-Oct-16 01:59N 61°27' W 005°50'332 7.3
2017-Oct-14 04:38N 59°09' E 004°19'2 8.0
2017-Oct-14 04:23N 59°09' E 004°23'3 8.0
2017-Oct-14 03:59N 59°08' E 004°29'4 8.0
2017-Oct-14 03:29N 59°08' E 004°37'4 7.8
2017-Oct-14 03:00N 59°07' E 004°44'4 8.4
2017-Oct-14 02:30N 59°07' E 004°52'4 8.9
2017-Oct-14 02:00N 59°07' E 005°01'4 8.6
2017-Oct-14 01:30N 59°07' E 005°09'4 8.1
2017-Oct-14 01:00N 59°07' E 005°17'4 8.0
2017-Oct-14 00:30N 59°08' E 005°25'4 8.4
2017-Oct-14 00:00N 59°09' E 005°33'4 8.6
2017-Oct-13 23:30N 59°08' E 005°41'5 9.2
2017-Oct-13 23:00N 59°07' E 005°50'3 6.2
2017-Oct-13 22:30N 59°05' E 005°54'0 0.0
2017-Oct-13 21:58N 59°05' E 005°54'0 0.0
2017-Oct-13 21:30N 59°05' E 005°54'1 2.6
2017-Oct-13 21:01N 59°06' E 005°52'4 8.6
2017-Oct-13 20:30N 59°10' E 005°54'4 7.9
2017-Oct-13 20:00N 59°13' E 005°59'5 9.1
2017-Oct-13 19:30N 59°15' E 006°08'5 9.6
2017-Oct-13 19:00N 59°17' E 006°16'5 9.5
2017-Oct-13 18:29N 59°19' E 006°25'1 2.2
2017-Oct-13 18:00N 59°19' E 006°27'0 0.0
2017-Oct-13 17:28N 59°19' E 006°27'0 0.0
2017-Oct-13 16:58N 59°19' E 006°27'0 0.0
2017-Oct-13 16:25N 59°19' E 006°27'0 0.0
2017-Oct-13 15:58N 59°19' E 006°27'0 0.0
2017-Oct-13 15:28N 59°19' E 006°27'0 0.0
2017-Oct-13 15:01N 59°19' E 006°27'0 0.0
2017-Oct-13 14:28N 59°19' E 006°27'0 0.0
2017-Oct-13 13:54N 59°19' E 006°27'0 0.0
2017-Oct-13 13:27N 59°19' E 006°27'0 0.0
2017-Oct-13 13:00N 59°19' E 006°27'0 0.0
2017-Oct-13 12:29N 59°19' E 006°27'4 7.9
2017-Oct-13 11:59N 59°18' E 006°20'510.2
2017-Oct-13 11:30N 59°16' E 006°11'510.1
2017-Oct-13 11:00N 59°14' E 006°02'510.3
2017-Oct-13 10:30N 59°13' E 005°52'510.6
2017-Oct-13 10:00N 59°12' E 005°42'510.5
2017-Oct-13 09:30N 59°10' E 005°32'5 9.6
2017-Oct-13 09:00N 59°09' E 005°23'4 8.5
2017-Oct-13 08:30N 59°13' E 005°21'5 9.1
2017-Oct-13 08:00N 59°17' E 005°20'3 6.1
2017-Oct-13 07:28N 59°20' E 005°19'0 0.0
2017-Oct-13 06:58N 59°20' E 005°19'0 0.0
2017-Oct-13 06:28N 59°20' E 005°19'0 0.0
2017-Oct-13 05:58N 59°20' E 005°19'0 0.0
2017-Oct-13 05:28N 59°20' E 005°19'0 0.0
2017-Oct-13 04:58N 59°20' E 005°19'0 0.0
2017-Oct-13 04:28N 59°20' E 005°19'0 0.0
2017-Oct-13 03:58N 59°20' E 005°19'0 0.0
2017-Oct-13 03:28N 59°20' E 005°19'0 0.0
2017-Oct-13 02:58N 59°20' E 005°19'0 0.0
2017-Oct-13 02:28N 59°20' E 005°19'0 0.0
2017-Oct-13 01:58N 59°20' E 005°19'0 0.0
2017-Oct-13 01:28N 59°20' E 005°19'0 0.0
2017-Oct-13 00:58N 59°20' E 005°19'0 0.0
2017-Oct-13 00:28N 59°20' E 005°19'0 0.0
2017-Oct-12 23:58N 59°20' E 005°19'0 0.0
2017-Oct-12 23:28N 59°20' E 005°19'0 0.0
2017-Oct-12 22:58N 59°20' E 005°19'0 0.0
2017-Oct-12 22:28N 59°20' E 005°19'0 0.0
2017-Oct-12 21:58N 59°20' E 005°19'0 0.0
2017-Oct-12 21:28N 59°20' E 005°19'0 0.0
2017-Oct-12 20:58N 59°20' E 005°19'0 0.0
2017-Oct-12 20:28N 59°20' E 005°19'0 0.0
2017-Oct-12 19:58N 59°20' E 005°19'0 0.0
2017-Oct-12 19:28N 59°20' E 005°19'0 0.0
2017-Oct-12 18:58N 59°20' E 005°19'0 0.0
2017-Oct-12 18:28N 59°20' E 005°19'0 0.0
2017-Oct-12 17:58N 59°20' E 005°19'0 0.0
2017-Oct-12 17:28N 59°20' E 005°19'0 0.0
2017-Oct-12 16:58N 59°20' E 005°19'0 0.8
2017-Oct-12 16:22N 59°20' E 005°18'0 0.0
2017-Oct-12 15:58N 59°20' E 005°18'0 0.0
2017-Oct-12 15:28N 59°20' E 005°18'0 0.0
2017-Oct-12 14:58N 59°20' E 005°18'0 0.0
2017-Oct-12 14:28N 59°20' E 005°18'0 0.0
2017-Oct-12 13:58N 59°20' E 005°18'0 0.0
2017-Oct-12 13:28N 59°20' E 005°18'0 0.0
2017-Oct-12 12:58N 59°20' E 005°18'0 0.0
2017-Oct-12 12:28N 59°20' E 005°18'0 0.0
2017-Oct-12 11:55N 59°20' E 005°18'0 0.0
2017-Oct-12 11:28N 59°20' E 005°18'0 0.0
2017-Oct-12 10:58N 59°20' E 005°18'0 0.0
2017-Oct-12 10:28N 59°20' E 005°18'0 0.0
2017-Oct-12 09:58N 59°20' E 005°18'0 0.0
2017-Oct-12 09:28N 59°20' E 005°18'0 0.0
2017-Oct-12 08:58N 59°20' E 005°18'0 0.0
2017-Oct-12 08:28N 59°20' E 005°18'0 0.0
2017-Oct-12 07:58N 59°20' E 005°18'0 0.0
2017-Oct-12 07:28N 59°20' E 005°18'0 0.0
2017-Oct-12 06:58N 59°20' E 005°18'0 0.0
2017-Oct-12 06:28N 59°20' E 005°18'0 0.0
2017-Oct-12 05:58N 59°20' E 005°18'0 0.0
2017-Oct-12 05:28N 59°20' E 005°18'0 0.0
2017-Oct-12 04:58N 59°20' E 005°18'0 0.0
2017-Oct-12 04:28N 59°20' E 005°18'0 0.0
2017-Oct-12 03:58N 59°20' E 005°18'0 0.0
2017-Oct-12 03:28N 59°20' E 005°18'0 0.0
2017-Oct-12 02:58N 59°20' E 005°18'0 0.0
2017-Oct-12 02:28N 59°20' E 005°18'0 0.0
2017-Oct-12 01:58N 59°20' E 005°18'0 0.0
2017-Oct-12 01:28N 59°20' E 005°18'0 0.0
2017-Oct-12 00:58N 59°20' E 005°18'0 0.0
2017-Oct-12 00:28N 59°20' E 005°18'0 0.0
2017-Oct-11 23:58N 59°20' E 005°18'0 0.0
2017-Oct-11 23:28N 59°20' E 005°18'0 0.0
2017-Oct-11 22:58N 59°20' E 005°18'0 0.0
2017-Oct-11 22:28N 59°20' E 005°18'0 0.0
2017-Oct-11 21:58N 59°20' E 005°18'0 0.0
2017-Oct-11 21:28N 59°20' E 005°18'0 0.2
2017-Oct-11 21:00N 59°20' E 005°18'4 8.0
2017-Oct-11 20:30N 59°16' E 005°20'5 9.4
2017-Oct-11 20:00N 59°12' E 005°21'5 9.3
2017-Oct-11 19:30N 59°07' E 005°21'5 9.6
2017-Oct-11 19:00N 59°02' E 005°20'5 9.9
2017-Oct-11 18:30N 58°57' E 005°20'510.9
2017-Oct-11 18:00N 58°52' E 005°18'510.5
2017-Oct-11 17:30N 58°47' E 005°18'510.2
2017-Oct-11 17:00N 58°42' E 005°18'309 9.1
2017-Oct-10 07:15N 53°33' E 004°48'410.6
2017-Oct-10 06:55N 53°30' E 004°46'410.6
2017-Oct-10 06:30N 53°26' E 004°42'2010.3
2017-Oct-10 04:36N 53°08' E 004°28'1 9.8
2017-Oct-10 04:30N 53°07' E 004°28'5 9.6
2017-Oct-10 04:00N 53°03' E 004°24'5 9.1
2017-Oct-10 03:30N 52°59' E 004°21'5 9.0
2017-Oct-10 03:00N 52°55' E 004°18'4 8.8
2017-Oct-10 02:30N 52°51' E 004°14'4 8.7
2017-Oct-10 02:00N 52°48' E 004°10'4 8.6
2017-Oct-10 01:30N 52°44' E 004°05'4 8.6
2017-Oct-10 01:00N 52°41' E 004°00'4 8.5
2017-Oct-10 00:30N 52°38' E 003°55'4 8.3
2017-Oct-10 00:00N 52°35' E 003°51'4 8.2
2017-Oct-09 23:30N 52°32' E 003°46'4 8.1
2017-Oct-09 23:00N 52°29' E 003°41'4 8.1
2017-Oct-09 22:30N 52°26' E 003°37'4 8.2
2017-Oct-09 21:59N 52°23' E 003°33'38 9.1
2017-Oct-09 17:50N 51°48' E 003°08'610.7
2017-Oct-09 17:15N 51°42' E 003°10'310.8
2017-Oct-09 17:00N 51°40' E 003°10'510.9
2017-Oct-09 16:30N 51°34' E 003°11'611.3
2017-Oct-09 16:00N 51°30' E 003°05'510.4
2017-Oct-09 15:30N 51°26' E 003°01'4 7.8
2017-Oct-09 15:00N 51°24' E 003°06'4 7.6
2017-Oct-09 14:31N 51°22' E 003°11'2 4.6
2017-Oct-09 14:00N 51°20' E 003°13'0 0.0
2017-Oct-09 13:30N 51°20' E 003°13'1 2.5
2017-Oct-09 13:00N 51°19' E 003°13'2 4.6
2017-Oct-09 12:30N 51°17' E 003°13'1 1.4
2017-Oct-09 12:00N 51°16' E 003°13'1 1.5
2017-Oct-09 11:30N 51°15' E 003°13'1 2.1
2017-Oct-09 10:58N 51°14' E 003°13'0 0.0
2017-Oct-09 10:28N 51°14' E 003°13'0 0.0
2017-Oct-09 09:55N 51°14' E 003°13'0 0.0
2017-Oct-09 09:25N 51°14' E 003°13'0 0.0
2017-Oct-09 08:58N 51°14' E 003°13'0 0.0
2017-Oct-09 08:28N 51°14' E 003°13'0 0.0
2017-Oct-09 07:58N 51°14' E 003°13'0 0.0
2017-Oct-09 07:25N 51°14' E 003°13'0 0.0
2017-Oct-09 06:58N 51°14' E 003°13'0 0.0
2017-Oct-09 06:28N 51°14' E 003°13'0 0.0
2017-Oct-09 05:58N 51°14' E 003°13'0 0.0
2017-Oct-09 05:28N 51°14' E 003°13'0 0.0
2017-Oct-09 04:58N 51°14' E 003°13'0 0.0
2017-Oct-09 04:28N 51°14' E 003°13'0 0.0
2017-Oct-09 03:55N 51°14' E 003°13'0 0.0
2017-Oct-09 03:28N 51°14' E 003°13'0 0.0
2017-Oct-09 02:55N 51°14' E 003°13'0 0.0
2017-Oct-09 02:28N 51°14' E 003°13'0 0.0
2017-Oct-09 01:55N 51°14' E 003°13'0 0.0
2017-Oct-09 01:28N 51°14' E 003°13'0 0.0
2017-Oct-09 00:58N 51°14' E 003°13'0 0.0
2017-Oct-09 00:28N 51°14' E 003°13'0 0.0
2017-Oct-08 23:58N 51°14' E 003°13'0 0.0
2017-Oct-08 23:28N 51°14' E 003°13'0 0.0
2017-Oct-08 22:55N 51°14' E 003°13'0 0.0
2017-Oct-08 22:28N 51°14' E 003°13'0 0.0
2017-Oct-08 21:58N 51°14' E 003°13'0 0.0
2017-Oct-08 21:28N 51°14' E 003°13'0 0.0
2017-Oct-08 20:58N 51°14' E 003°13'0 0.0
2017-Oct-08 20:28N 51°14' E 003°13'0 0.0
2017-Oct-08 19:58N 51°14' E 003°13'0 0.0
2017-Oct-08 19:28N 51°14' E 003°13'0 0.0
2017-Oct-08 18:58N 51°14' E 003°13'0 0.0
2017-Oct-08 18:28N 51°14' E 003°13'0 0.0
2017-Oct-08 17:58N 51°14' E 003°13'0 0.0
2017-Oct-08 17:28N 51°14' E 003°13'0 0.0
2017-Oct-08 16:58N 51°14' E 003°13'0 0.0
2017-Oct-08 16:28N 51°14' E 003°13'0 0.0
2017-Oct-08 15:58N 51°14' E 003°13'0 0.0
2017-Oct-08 15:28N 51°14' E 003°13'0 0.0
2017-Oct-08 14:58N 51°14' E 003°13'0 0.0
2017-Oct-08 14:28N 51°14' E 003°13'0 0.0
2017-Oct-08 13:55N 51°14' E 003°13'0 0.0
2017-Oct-08 13:25N 51°14' E 003°13'0 0.0
2017-Oct-08 12:58N 51°14' E 003°13'0 0.0
2017-Oct-08 12:28N 51°14' E 003°13'0 0.0
2017-Oct-08 11:58N 51°14' E 003°13'0 0.0
2017-Oct-08 11:25N 51°14' E 003°13'0 0.0
2017-Oct-08 10:55N 51°14' E 003°13'0 0.0
2017-Oct-08 10:28N 51°14' E 003°13'0 0.0
2017-Oct-08 09:55N 51°14' E 003°13'0 0.0
2017-Oct-08 09:28N 51°14' E 003°13'0 0.1
2017-Oct-08 09:00N 51°14' E 003°13'3 5.1
2017-Oct-08 08:30N 51°17' E 003°13'1 1.0
2017-Oct-08 08:00N 51°17' E 003°13'2 4.4
2017-Oct-08 07:30N 51°19' E 003°13'1 1.7
2017-Oct-08 07:00N 51°20' E 003°13'0 0.1
2017-Oct-08 06:30N 51°20' E 003°13'3 5.3
2017-Oct-08 06:00N 51°22' E 003°10'4 8.7
2017-Oct-08 05:30N 51°24' E 003°04'3 6.4
2017-Oct-08 05:00N 51°26' E 002°60'3 5.7
2017-Oct-08 04:30N 51°27' E 002°56'3 5.8
2017-Oct-08 04:00N 51°29' E 002°52'3 6.1
2017-Oct-08 03:30N 51°31' E 002°48'75 9.9
2017-Oct-07 19:51N 52°40' E 001°57'1311.9
2017-Oct-07 18:46N 52°51' E 001°46'311.6
2017-Oct-07 18:30N 52°53' E 001°43'1111.0
2017-Oct-07 17:29N 53°01' E 001°30'510.0
2017-Oct-07 17:00N 53°04' E 001°24'5 9.4
2017-Oct-07 16:30N 53°07' E 001°18'4 8.8
2017-Oct-07 16:00N 53°11' E 001°13'4 8.2
2017-Oct-07 15:30N 53°14' E 001°09'4 8.0
2017-Oct-07 15:00N 53°17' E 001°04'4 7.9
2017-Oct-07 14:30N 53°20' E 000°60'41 8.5
2017-Oct-07 09:43N 53°36' W 000°03'313.1
2017-Oct-07 09:30N 53°37' W 000°07'611.9
2017-Oct-07 09:00N 53°42' W 000°14'3 6.1
2017-Oct-07 08:30N 53°44' W 000°16'0 1.0
2017-Oct-07 08:00N 53°44' W 000°16'0 0.0
2017-Oct-07 07:30N 53°44' W 000°16'0 0.0
2017-Oct-07 07:00N 53°44' W 000°16'0 0.0
2017-Oct-07 06:30N 53°44' W 000°16'0 0.0
2017-Oct-07 06:00N 53°44' W 000°16'0 0.0
2017-Oct-07 05:30N 53°44' W 000°16'0 0.0
2017-Oct-07 05:00N 53°44' W 000°16'0 0.0
2017-Oct-07 04:30N 53°44' W 000°16'0 0.0
2017-Oct-07 04:00N 53°44' W 000°16'0 0.0
2017-Oct-07 03:30N 53°44' W 000°16'0 0.0
2017-Oct-07 03:00N 53°44' W 000°16'0 0.0
2017-Oct-07 02:30N 53°44' W 000°16'0 0.0
2017-Oct-07 02:00N 53°44' W 000°16'0 0.0
2017-Oct-07 01:30N 53°44' W 000°16'0 0.0
2017-Oct-07 01:00N 53°44' W 000°16'0 0.0
2017-Oct-07 00:30N 53°44' W 000°16'0 0.0
2017-Oct-07 00:00N 53°44' W 000°16'0 0.0
2017-Oct-06 23:30N 53°44' W 000°16'0 0.0
2017-Oct-06 23:00N 53°44' W 000°16'0 0.0
2017-Oct-06 22:30N 53°44' W 000°16'0 0.0
2017-Oct-06 22:00N 53°44' W 000°16'0 0.0
2017-Oct-06 21:30N 53°44' W 000°16'0 0.0
2017-Oct-06 21:00N 53°44' W 000°16'0 0.0
2017-Oct-06 20:30N 53°44' W 000°16'0 0.0
2017-Oct-06 20:00N 53°44' W 000°16'0 0.0
2017-Oct-06 19:30N 53°44' W 000°16'0 0.0
2017-Oct-06 19:00N 53°44' W 000°16'0 0.0
2017-Oct-06 18:30N 53°44' W 000°16'0 0.0
2017-Oct-06 18:00N 53°44' W 000°16'  

Dump ship's entire track history